createdAt,value
2019-02-28T00:00:30.019Z,0.00
2019-02-28T00:01:29.579Z,0.00
2019-02-28T00:02:29.582Z,0.00
2019-02-28T00:03:29.562Z,0.00
2019-02-28T00:04:32.762Z,0.00
2019-02-28T00:05:29.548Z,0.00
2019-02-28T00:06:29.519Z,0.00
2019-02-28T00:07:29.507Z,0.00
2019-02-28T00:08:29.506Z,0.00
2019-02-28T00:09:29.489Z,0.00
2019-02-28T00:10:30.840Z,0.00
2019-02-28T00:11:29.478Z,0.00
2019-02-28T00:12:29.459Z,0.00
2019-02-28T00:13:29.459Z,0.00
2019-02-28T00:14:29.440Z,0.00
2019-02-28T00:15:30.370Z,0.00
2019-02-28T00:16:29.437Z,0.00
2019-02-28T00:17:29.426Z,0.00
2019-02-28T00:18:29.392Z,0.00
2019-02-28T00:19:29.387Z,0.00
2019-02-28T00:20:32.028Z,0.00
2019-02-28T00:21:29.407Z,0.00
2019-02-28T00:22:29.351Z,0.00
2019-02-28T00:23:29.360Z,0.00
2019-02-28T00:24:30.081Z,0.00
2019-02-28T00:25:29.352Z,0.00
2019-02-28T00:26:29.336Z,0.00
2019-02-28T00:27:29.308Z,0.00
2019-02-28T00:28:29.282Z,0.00
2019-02-28T00:29:33.430Z,0.00
2019-02-28T00:30:29.263Z,0.00
2019-02-28T00:31:29.250Z,0.00
2019-02-28T00:32:29.263Z,0.00
2019-02-28T00:33:30.884Z,0.00
2019-02-28T00:34:29.225Z,0.00
2019-02-28T00:35:29.218Z,0.00
2019-02-28T00:36:29.209Z,0.00
2019-02-28T00:37:29.215Z,0.00
2019-02-28T00:38:29.815Z,0.00
2019-02-28T00:39:31.348Z,0.00
2019-02-28T00:40:30.162Z,0.00
2019-02-28T00:41:29.157Z,0.00
2019-02-28T00:42:29.137Z,0.00
2019-02-28T00:43:29.148Z,0.00
2019-02-28T00:44:31.305Z,0.00
2019-02-28T00:45:29.108Z,0.00
2019-02-28T00:46:29.098Z,0.00
2019-02-28T00:47:29.102Z,0.00
2019-02-28T00:48:29.094Z,0.00
2019-02-28T00:49:29.063Z,0.00
2019-02-28T00:50:29.063Z,0.00
2019-02-28T00:51:29.696Z,0.00
2019-02-28T00:52:29.037Z,0.00
2019-02-28T00:53:29.049Z,0.00
2019-02-28T00:54:29.037Z,0.00
2019-02-28T00:55:29.010Z,0.00
2019-02-28T00:56:29.010Z,0.00
2019-02-28T00:57:28.978Z,0.00
2019-02-28T00:58:29.624Z,0.00
2019-02-28T00:59:31.701Z,0.00
2019-02-28T01:00:28.943Z,0.00
2019-02-28T01:01:28.938Z,0.00
2019-02-28T01:02:28.923Z,0.00
2019-02-28T01:03:28.927Z,0.00
2019-02-28T01:04:30.018Z,0.00
2019-02-28T01:05:28.905Z,0.00
2019-02-28T01:06:28.899Z,0.00
2019-02-28T01:07:28.879Z,0.00
2019-02-28T01:08:28.860Z,0.00
2019-02-28T01:09:30.063Z,0.00
2019-02-28T01:10:28.863Z,0.00
2019-02-28T01:11:28.842Z,0.00
2019-02-28T01:12:28.826Z,0.00
2019-02-28T01:13:28.816Z,0.00
2019-02-28T01:14:28.797Z,0.00
2019-02-28T01:15:28.815Z,0.00
2019-02-28T01:16:28.829Z,0.00
2019-02-28T01:17:28.779Z,0.00
2019-02-28T01:18:28.766Z,0.00
2019-02-28T01:19:28.753Z,0.00
2019-02-28T01:20:28.736Z,0.00
2019-02-28T01:21:28.750Z,0.00
2019-02-28T01:22:28.722Z,0.00
2019-02-28T01:23:29.404Z,0.00
2019-02-28T01:24:28.699Z,0.00
2019-02-28T01:25:28.692Z,0.00
2019-02-28T01:26:30.448Z,0.00
2019-02-28T01:27:28.669Z,0.00
2019-02-28T01:28:28.659Z,0.00
2019-02-28T01:29:28.667Z,0.00
2019-02-28T01:30:28.637Z,0.00
2019-02-28T01:31:28.633Z,0.00
2019-02-28T01:32:28.617Z,0.00
2019-02-28T01:33:28.647Z,0.00
2019-02-28T01:34:29.140Z,0.00
2019-02-28T01:35:28.577Z,0.00
2019-02-28T01:36:28.572Z,0.00
2019-02-28T01:37:28.569Z,0.00
2019-02-28T01:38:28.581Z,0.00
2019-02-28T01:39:30.013Z,0.00
2019-02-28T01:40:28.529Z,0.00
2019-02-28T01:41:28.570Z,0.00
2019-02-28T01:42:28.503Z,0.00
2019-02-28T01:43:28.937Z,0.00
2019-02-28T01:44:28.522Z,0.00
2019-02-28T01:45:28.479Z,0.00
2019-02-28T01:46:28.472Z,0.00
2019-02-28T01:47:28.450Z,0.00
2019-02-28T01:48:28.447Z,0.00
2019-02-28T01:49:28.437Z,0.00
2019-02-28T01:50:29.643Z,0.00
2019-02-28T01:51:28.415Z,0.00
2019-02-28T01:52:28.402Z,0.00
2019-02-28T01:53:28.387Z,0.00
2019-02-28T01:54:28.499Z,0.00
2019-02-28T01:55:29.384Z,0.00
2019-02-28T01:56:28.381Z,0.00
2019-02-28T01:57:28.351Z,0.00
2019-02-28T01:58:28.676Z,0.00
2019-02-28T01:59:28.329Z,0.00
2019-02-28T02:00:28.323Z,0.00
2019-02-28T02:01:28.472Z,0.00
2019-02-28T02:02:28.305Z,0.00
2019-02-28T02:03:28.311Z,0.00
2019-02-28T02:04:28.278Z,0.00
2019-02-28T02:05:28.263Z,0.00
2019-02-28T02:06:28.257Z,0.00
2019-02-28T02:07:30.535Z,0.00
2019-02-28T02:08:28.254Z,0.00
2019-02-28T02:09:28.226Z,0.00
2019-02-28T02:10:28.221Z,0.00
2019-02-28T02:11:28.204Z,0.00
2019-02-28T02:12:31.365Z,0.00
2019-02-28T02:13:28.201Z,0.00
2019-02-28T02:14:28.170Z,0.00
2019-02-28T02:15:28.160Z,0.00
2019-02-28T02:16:28.167Z,0.00
2019-02-28T02:17:28.143Z,0.00
2019-02-28T02:18:28.146Z,0.00
2019-02-28T02:19:28.115Z,0.00
2019-02-28T02:20:28.111Z,0.00
2019-02-28T02:21:28.118Z,0.00
2019-02-28T02:22:28.107Z,0.00
2019-02-28T02:23:28.077Z,0.00
2019-02-28T02:24:28.930Z,0.00
2019-02-28T02:25:28.050Z,0.00
2019-02-28T02:26:28.047Z,0.00
2019-02-28T02:27:28.036Z,0.00
2019-02-28T02:28:28.032Z,0.00
2019-02-28T02:29:28.015Z,0.00
2019-02-28T02:30:28.023Z,0.00
2019-02-28T02:31:29.213Z,0.00
2019-02-28T02:32:28.005Z,0.00
2019-02-28T02:33:27.966Z,0.00
2019-02-28T02:34:29.428Z,0.00
2019-02-28T02:35:27.953Z,0.00
2019-02-28T02:36:27.957Z,0.00
2019-02-28T02:37:30.290Z,0.00
2019-02-28T02:38:27.918Z,0.00
2019-02-28T02:39:27.911Z,0.00
2019-02-28T02:40:27.897Z,0.00
2019-02-28T02:41:27.887Z,0.00
2019-02-28T02:42:27.898Z,0.00
2019-02-28T02:43:27.870Z,0.00
2019-02-28T02:44:31.745Z,0.00
2019-02-28T02:45:27.882Z,0.00
2019-02-28T02:46:27.829Z,0.00
2019-02-28T02:47:31.380Z,0.00
2019-02-28T02:48:27.836Z,0.00
2019-02-28T02:49:27.811Z,0.00
2019-02-28T02:50:34.375Z,0.00
2019-02-28T02:51:28.776Z,0.00
2019-02-28T02:52:30.415Z,0.00
2019-02-28T02:53:27.798Z,0.00
2019-02-28T02:54:27.762Z,0.00
2019-02-28T02:55:29.195Z,0.00
2019-02-28T02:56:27.722Z,0.00
2019-02-28T02:57:27.723Z,0.00
2019-02-28T02:58:28.204Z,0.00
2019-02-28T02:59:27.707Z,0.00
2019-02-28T03:00:27.689Z,0.00
2019-02-28T03:01:27.686Z,0.00
2019-02-28T03:02:28.645Z,0.00
2019-02-28T03:03:28.652Z,0.00
2019-02-28T03:04:27.668Z,0.00
2019-02-28T03:05:34.965Z,0.00
2019-02-28T03:06:28.627Z,0.00
2019-02-28T03:07:27.621Z,0.00
2019-02-28T03:08:27.610Z,0.00
2019-02-28T03:09:27.618Z,0.00
2019-02-28T03:10:27.576Z,0.00
2019-02-28T03:11:27.569Z,0.00
2019-02-28T03:12:31.131Z,0.00
2019-02-28T03:13:28.546Z,0.00
2019-02-28T03:14:27.540Z,0.00
2019-02-28T03:15:27.551Z,0.00
2019-02-28T03:16:27.520Z,0.00
2019-02-28T03:17:27.500Z,0.00
2019-02-28T03:18:27.491Z,0.00
2019-02-28T03:19:33.111Z,0.00
2019-02-28T03:20:28.532Z,0.00
2019-02-28T03:21:27.475Z,0.00
2019-02-28T03:22:29.922Z,0.00
2019-02-28T03:23:27.436Z,0.00
2019-02-28T03:24:27.433Z,0.00
2019-02-28T03:25:28.285Z,0.00
2019-02-28T03:26:27.432Z,0.00
2019-02-28T03:27:27.399Z,0.00
2019-02-28T03:28:28.121Z,0.00
2019-02-28T03:29:27.374Z,0.00
2019-02-28T03:30:31.827Z,0.00
2019-02-28T03:31:28.391Z,0.00
2019-02-28T03:32:39.310Z,0.00
2019-02-28T03:33:28.929Z,0.00
2019-02-28T03:34:27.341Z,0.00
2019-02-28T03:35:40.541Z,0.00
2019-02-28T03:36:28.308Z,0.00
2019-02-28T03:37:32.798Z,0.00
2019-02-28T03:38:28.288Z,0.00
2019-02-28T03:39:27.282Z,0.00
2019-02-28T03:40:27.261Z,0.00
2019-02-28T03:41:27.247Z,0.00
2019-02-28T03:42:28.919Z,0.00
2019-02-28T03:43:27.232Z,0.00
2019-02-28T03:44:27.225Z,0.00
2019-02-28T03:45:33.667Z,0.00
2019-02-28T03:46:28.202Z,0.00
2019-02-28T03:47:27.217Z,0.00
2019-02-28T03:48:27.175Z,0.00
2019-02-28T03:49:27.172Z,0.00
2019-02-28T03:50:27.153Z,0.00
2019-02-28T03:51:28.393Z,0.00
2019-02-28T03:52:27.140Z,0.00
2019-02-28T03:53:27.165Z,0.00
2019-02-28T03:54:28.883Z,0.00
2019-02-28T03:55:27.109Z,0.00
2019-02-28T03:56:27.099Z,0.00
2019-02-28T03:57:29.420Z,0.00
2019-02-28T03:58:27.096Z,0.00
2019-02-28T03:59:27.144Z,0.00
2019-02-28T04:00:32.336Z,0.00
2019-02-28T04:01:28.050Z,0.00
2019-02-28T04:02:27.028Z,0.00
2019-02-28T04:03:33.321Z,0.00
2019-02-28T04:04:28.012Z,0.00
2019-02-28T04:05:28.343Z,0.00
2019-02-28T04:06:26.988Z,0.00
2019-02-28T04:07:26.979Z,0.00
2019-02-28T04:08:30.427Z,0.00
2019-02-28T04:09:26.969Z,0.00
2019-02-28T04:10:26.953Z,0.00
2019-02-28T04:11:30.509Z,0.00
2019-02-28T04:12:26.925Z,0.00
2019-02-28T04:13:26.909Z,0.00
2019-02-28T04:14:28.303Z,0.00
2019-02-28T04:15:27.889Z,0.00
2019-02-28T04:16:26.884Z,0.00
2019-02-28T04:17:30.430Z,0.00
2019-02-28T04:18:26.891Z,0.00
2019-02-28T04:19:26.860Z,0.00
2019-02-28T04:20:26.846Z,0.00
2019-02-28T04:21:26.825Z,0.00
2019-02-28T04:22:26.819Z,0.00
2019-02-28T04:23:26.812Z,0.00
2019-02-28T04:24:26.821Z,0.00
2019-02-28T04:25:26.790Z,0.00
2019-02-28T04:26:29.728Z,0.00
2019-02-28T04:27:26.759Z,0.00
2019-02-28T04:28:26.759Z,0.00
2019-02-28T04:29:31.255Z,0.00
2019-02-28T04:30:26.738Z,0.00
2019-02-28T04:31:26.738Z,0.00
2019-02-28T04:32:27.856Z,0.00
2019-02-28T04:33:26.695Z,0.00
2019-02-28T04:34:26.686Z,0.00
2019-02-28T04:35:26.693Z,0.00
2019-02-28T04:36:26.682Z,0.00
2019-02-28T04:37:26.671Z,0.00
2019-02-28T04:38:26.653Z,0.00
2019-02-28T04:39:26.643Z,0.00
2019-02-28T04:40:27.096Z,0.00
2019-02-28T04:41:26.613Z,0.00
2019-02-28T04:42:26.608Z,0.00
2019-02-28T04:43:26.606Z,0.00
2019-02-28T04:44:26.593Z,0.00
2019-02-28T04:45:27.105Z,0.00
2019-02-28T04:46:28.331Z,0.00
2019-02-28T04:47:27.553Z,0.00
2019-02-28T04:48:26.545Z,0.00
2019-02-28T04:49:26.537Z,0.00
2019-02-28T04:50:31.249Z,0.00
2019-02-28T04:51:27.529Z,0.00
2019-02-28T04:52:26.496Z,0.00
2019-02-28T04:53:26.482Z,0.00
2019-02-28T04:54:27.875Z,0.00
2019-02-28T04:55:26.472Z,0.00
2019-02-28T04:56:26.490Z,0.00
2019-02-28T04:57:26.449Z,0.00
2019-02-28T04:58:26.431Z,0.00
2019-02-28T04:59:26.443Z,0.00
2019-02-28T05:00:26.427Z,0.00
2019-02-28T05:01:26.444Z,0.00
2019-02-28T05:02:26.398Z,0.00
2019-02-28T05:03:29.081Z,0.00
2019-02-28T05:04:26.369Z,0.00
2019-02-28T05:05:26.367Z,0.00
2019-02-28T05:06:26.373Z,0.00
2019-02-28T05:07:29.601Z,0.00
2019-02-28T05:08:26.333Z,0.00
2019-02-28T05:09:26.438Z,0.00
2019-02-28T05:10:26.312Z,0.00
2019-02-28T05:11:27.426Z,0.00
2019-02-28T05:12:26.326Z,0.00
2019-02-28T05:13:26.278Z,0.00
2019-02-28T05:14:26.268Z,0.00
2019-02-28T05:15:26.262Z,0.00
2019-02-28T05:16:26.258Z,0.00
2019-02-28T05:17:26.239Z,0.00
2019-02-28T05:18:27.556Z,0.00
2019-02-28T05:19:26.214Z,0.00
2019-02-28T05:20:26.206Z,0.00
2019-02-28T05:21:26.195Z,0.00
2019-02-28T05:22:27.547Z,0.00
2019-02-28T05:23:26.193Z,0.00
2019-02-28T05:24:26.161Z,0.00
2019-02-28T05:25:26.146Z,0.00
2019-02-28T05:26:26.965Z,0.00
2019-02-28T05:27:26.128Z,0.00
2019-02-28T05:28:26.143Z,0.00
2019-02-28T05:29:26.120Z,0.00
2019-02-28T05:30:26.095Z,0.00
2019-02-28T05:31:27.112Z,0.00
2019-02-28T05:32:26.081Z,0.00
2019-02-28T05:33:26.093Z,0.00
2019-02-28T05:34:26.058Z,0.00
2019-02-28T05:35:26.847Z,0.00
2019-02-28T05:36:26.037Z,0.00
2019-02-28T05:37:26.055Z,0.00
2019-02-28T05:38:26.062Z,0.00
2019-02-28T05:39:28.212Z,0.00
2019-02-28T05:40:25.990Z,0.00
2019-02-28T05:41:25.980Z,0.00
2019-02-28T05:42:25.978Z,0.00
2019-02-28T05:43:25.956Z,0.00
2019-02-28T05:44:25.956Z,0.00
2019-02-28T05:45:25.928Z,5.62
2019-02-28T05:46:25.926Z,5.62
2019-02-28T05:47:26.111Z,5.62
2019-02-28T05:48:25.926Z,5.62
2019-02-28T05:49:25.885Z,5.62
2019-02-28T05:50:25.875Z,5.62
2019-02-28T05:51:25.893Z,11.25
2019-02-28T05:52:25.863Z,11.25
2019-02-28T05:53:25.856Z,11.25
2019-02-28T05:54:25.867Z,11.25
2019-02-28T05:55:25.940Z,11.25
2019-02-28T05:56:25.808Z,16.88
2019-02-28T05:57:25.800Z,16.88
2019-02-28T05:58:25.814Z,16.88
2019-02-28T05:59:27.217Z,16.88
2019-02-28T06:00:25.773Z,22.50
2019-02-28T06:01:25.817Z,22.50
2019-02-28T06:02:25.777Z,22.50
2019-02-28T06:03:25.740Z,28.12
2019-02-28T06:04:25.784Z,28.12
2019-02-28T06:05:25.720Z,33.75
2019-02-28T06:06:25.803Z,33.75
2019-02-28T06:07:25.944Z,33.75
2019-02-28T06:08:25.694Z,39.38
2019-02-28T06:09:25.695Z,39.38
2019-02-28T06:10:25.662Z,45.00
2019-02-28T06:11:25.657Z,45.00
2019-02-28T06:12:25.642Z,45.00
2019-02-28T06:13:25.639Z,50.62
2019-02-28T06:14:27.589Z,50.62
2019-02-28T06:15:25.611Z,56.25
2019-02-28T06:16:25.604Z,56.25
2019-02-28T06:17:25.587Z,61.88
2019-02-28T06:18:27.005Z,61.88
2019-02-28T06:19:26.596Z,67.50
2019-02-28T06:20:25.549Z,67.50
2019-02-28T06:21:25.548Z,73.12
2019-02-28T06:22:25.589Z,73.12
2019-02-28T06:23:25.564Z,78.75
2019-02-28T06:24:25.546Z,78.75
2019-02-28T06:25:25.843Z,84.38
2019-02-28T06:26:25.498Z,90.00
2019-02-28T06:27:25.486Z,95.62
2019-02-28T06:28:27.698Z,101.25
2019-02-28T06:29:26.505Z,106.88
2019-02-28T06:30:27.690Z,112.50
2019-02-28T06:31:25.473Z,123.75
2019-02-28T06:32:27.274Z,129.38
2019-02-28T06:33:25.437Z,140.62
2019-02-28T06:34:25.406Z,151.88
2019-02-28T06:35:25.398Z,157.50
2019-02-28T06:36:25.724Z,163.12
2019-02-28T06:37:25.376Z,174.38
2019-02-28T06:38:25.368Z,180.00
2019-02-28T06:39:26.859Z,191.25
2019-02-28T06:40:25.345Z,196.88
2019-02-28T06:41:25.350Z,219.38
2019-02-28T06:42:25.321Z,236.25
2019-02-28T06:43:25.309Z,253.12
2019-02-28T06:44:26.984Z,264.38
2019-02-28T06:45:25.293Z,275.62
2019-02-28T06:46:25.317Z,286.88
2019-02-28T06:47:25.278Z,303.75
2019-02-28T06:48:26.598Z,320.62
2019-02-28T06:49:25.244Z,331.88
2019-02-28T06:50:25.236Z,320.62
2019-02-28T06:51:25.241Z,315.00
2019-02-28T06:52:25.998Z,309.38
2019-02-28T06:53:25.203Z,303.75
2019-02-28T06:54:25.188Z,309.38
2019-02-28T06:55:25.183Z,320.62
2019-02-28T06:56:25.175Z,326.25
2019-02-28T06:57:26.953Z,343.12
2019-02-28T06:58:25.172Z,354.38
2019-02-28T06:59:25.171Z,360.00
2019-02-28T07:00:25.128Z,365.62
2019-02-28T07:01:25.118Z,382.50
2019-02-28T07:02:25.132Z,399.38
2019-02-28T07:03:25.098Z,410.62
2019-02-28T07:04:25.098Z,421.88
2019-02-28T07:05:26.292Z,421.88
2019-02-28T07:06:25.066Z,450.00
2019-02-28T07:07:25.056Z,444.38
2019-02-28T07:08:28.811Z,455.62
2019-02-28T07:09:25.040Z,438.75
2019-02-28T07:10:25.027Z,466.88
2019-02-28T07:11:25.017Z,517.50
2019-02-28T07:12:29.189Z,517.50
2019-02-28T07:13:25.016Z,511.88
2019-02-28T07:14:24.980Z,511.88
2019-02-28T07:15:25.043Z,540.00
2019-02-28T07:16:24.952Z,573.75
2019-02-28T07:17:24.942Z,596.25
2019-02-28T07:18:24.953Z,618.75
2019-02-28T07:19:26.273Z,618.75
2019-02-28T07:20:24.924Z,613.12
2019-02-28T07:21:24.916Z,646.88
2019-02-28T07:22:24.898Z,663.75
2019-02-28T07:23:26.665Z,686.25
2019-02-28T07:24:24.886Z,720.00
2019-02-28T07:25:24.864Z,697.50
2019-02-28T07:26:24.857Z,708.75
2019-02-28T07:27:26.674Z,708.75
2019-02-28T07:28:24.836Z,736.88
2019-02-28T07:29:24.854Z,765.00
2019-02-28T07:30:24.809Z,793.12
2019-02-28T07:31:25.472Z,804.38
2019-02-28T07:32:26.150Z,815.62
2019-02-28T07:33:24.789Z,793.12
2019-02-28T07:34:24.803Z,781.88
2019-02-28T07:35:24.756Z,821.25
2019-02-28T07:36:24.739Z,821.25
2019-02-28T07:37:24.731Z,877.50
2019-02-28T07:38:25.573Z,866.25
2019-02-28T07:39:24.715Z,883.12
2019-02-28T07:40:24.719Z,855.00
2019-02-28T07:41:26.763Z,843.75
2019-02-28T07:42:24.687Z,855.00
2019-02-28T07:43:24.683Z,916.88
2019-02-28T07:44:24.670Z,911.25
2019-02-28T07:45:24.676Z,956.25
2019-02-28T07:46:24.789Z,978.75
2019-02-28T07:47:25.476Z,1006.88
2019-02-28T07:48:29.207Z,1018.12
2019-02-28T07:49:25.994Z,1029.38
2019-02-28T07:50:24.622Z,1023.75
2019-02-28T07:51:26.323Z,1012.50
2019-02-28T07:52:24.574Z,1063.12
2019-02-28T07:53:24.565Z,1063.12
2019-02-28T07:54:24.550Z,1046.25
2019-02-28T07:55:27.240Z,1035.00
2019-02-28T07:56:25.562Z,1035.00
2019-02-28T07:57:24.546Z,1080.00
2019-02-28T07:58:26.637Z,1108.12
2019-02-28T07:59:24.502Z,1125.00
2019-02-28T08:00:24.491Z,1091.25
2019-02-28T08:01:27.542Z,1091.25
2019-02-28T08:02:24.460Z,1147.50
2019-02-28T08:03:24.464Z,1147.50
2019-02-28T08:04:24.445Z,1136.25
2019-02-28T08:05:29.899Z,1192.50
2019-02-28T08:06:25.453Z,1186.88
2019-02-28T08:07:24.425Z,1164.38
2019-02-28T08:08:26.444Z,1130.62
2019-02-28T08:09:24.402Z,1175.62
2019-02-28T08:10:24.383Z,1119.38
2019-02-28T08:11:24.417Z,1170.00
2019-02-28T08:12:24.352Z,1147.50
2019-02-28T08:13:24.364Z,1153.12
2019-02-28T08:14:24.332Z,1153.12
2019-02-28T08:15:24.342Z,1141.88
2019-02-28T08:16:24.322Z,1186.88
2019-02-28T08:17:24.333Z,1203.75
2019-02-28T08:18:24.304Z,1198.12
2019-02-28T08:19:27.191Z,1248.75
2019-02-28T08:20:24.274Z,1260.00
2019-02-28T08:21:24.263Z,1254.38
2019-02-28T08:22:24.731Z,1220.62
2019-02-28T08:23:24.262Z,1293.75
2019-02-28T08:24:26.544Z,1338.75
2019-02-28T08:25:24.223Z,1321.88
2019-02-28T08:26:24.198Z,1321.88
2019-02-28T08:27:25.394Z,1327.50
2019-02-28T08:28:24.203Z,1316.25
2019-02-28T08:29:24.175Z,1366.88
2019-02-28T08:30:24.172Z,1321.88
2019-02-28T08:31:24.158Z,1383.75
2019-02-28T08:32:24.133Z,1434.38
2019-02-28T08:33:24.139Z,1378.12
2019-02-28T08:34:25.000Z,1440.00
2019-02-28T08:35:24.106Z,1456.88
2019-02-28T08:36:24.115Z,1417.50
2019-02-28T08:37:24.089Z,1372.50
2019-02-28T08:38:24.091Z,1366.88
2019-02-28T08:39:24.064Z,1406.25
2019-02-28T08:40:26.492Z,1462.50
2019-02-28T08:41:25.756Z,1411.88
2019-02-28T08:42:24.038Z,1546.88
2019-02-28T08:43:27.063Z,1603.12
2019-02-28T08:44:24.126Z,1563.75
2019-02-28T08:45:23.999Z,1530.00
2019-02-28T08:46:24.128Z,1530.00
2019-02-28T08:47:23.975Z,1546.88
2019-02-28T08:48:24.005Z,1586.25
2019-02-28T08:49:23.963Z,1586.25
2019-02-28T08:50:24.083Z,1558.12
2019-02-28T08:51:23.937Z,1530.00
2019-02-28T08:52:23.917Z,1530.00
2019-02-28T08:53:23.908Z,1631.25
2019-02-28T08:54:27.350Z,1665.00
2019-02-28T08:55:28.735Z,1580.62
2019-02-28T08:56:24.879Z,1546.88
2019-02-28T08:57:25.726Z,1558.12
2019-02-28T08:58:23.852Z,1636.88
2019-02-28T08:59:23.869Z,1659.38
2019-02-28T09:00:23.881Z,1676.25
2019-02-28T09:01:23.832Z,1569.38
2019-02-28T09:02:23.827Z,1546.88
2019-02-28T09:03:24.266Z,1575.00
2019-02-28T09:04:23.797Z,1676.25
2019-02-28T09:05:26.316Z,1760.62
2019-02-28T09:06:24.792Z,1698.75
2019-02-28T09:07:23.757Z,1653.75
2019-02-28T09:08:25.335Z,1800.00
2019-02-28T09:09:23.744Z,1828.12
2019-02-28T09:10:23.731Z,1895.62
2019-02-28T09:11:23.746Z,1951.88
2019-02-28T09:12:23.709Z,1788.75
2019-02-28T09:13:25.094Z,1681.88
2019-02-28T09:14:23.690Z,1850.62
2019-02-28T09:15:23.686Z,1929.38
2019-02-28T09:16:23.686Z,1996.88
2019-02-28T09:17:23.659Z,2013.75
2019-02-28T09:18:23.642Z,1946.25
2019-02-28T09:19:23.635Z,1771.88
2019-02-28T09:20:23.623Z,2008.12
2019-02-28T09:21:23.634Z,1783.12
2019-02-28T09:22:27.013Z,1878.75
2019-02-28T09:23:23.716Z,1912.50
2019-02-28T09:24:23.589Z,1501.88
2019-02-28T09:25:23.569Z,1755.00
2019-02-28T09:26:23.577Z,1940.62
2019-02-28T09:27:23.556Z,1974.38
2019-02-28T09:28:23.542Z,1957.50
2019-02-28T09:29:23.528Z,2171.25
2019-02-28T09:30:26.593Z,2041.88
2019-02-28T09:31:24.521Z,1805.62
2019-02-28T09:32:23.507Z,1845.00
2019-02-28T09:33:24.051Z,2008.12
2019-02-28T09:34:23.478Z,2008.12
2019-02-28T09:35:23.474Z,2210.62
2019-02-28T09:36:23.455Z,2047.50
2019-02-28T09:37:23.462Z,1845.00
2019-02-28T09:38:23.429Z,1771.88
2019-02-28T09:39:23.416Z,1996.88
2019-02-28T09:40:25.678Z,1974.38
2019-02-28T09:41:24.403Z,1963.12
2019-02-28T09:42:23.424Z,1935.00
2019-02-28T09:43:24.192Z,2041.88
2019-02-28T09:44:23.377Z,1749.38
2019-02-28T09:45:23.350Z,1884.38
2019-02-28T09:46:23.350Z,1890.00
2019-02-28T09:47:26.517Z,2019.38
2019-02-28T09:48:23.334Z,2013.75
2019-02-28T09:49:23.310Z,1878.75
2019-02-28T09:50:23.424Z,2008.12
2019-02-28T09:51:23.293Z,1906.88
2019-02-28T09:52:23.283Z,1890.00
2019-02-28T09:53:23.314Z,2053.12
2019-02-28T09:54:24.392Z,1473.75
2019-02-28T09:55:23.254Z,1794.38
2019-02-28T09:56:23.231Z,1620.00
2019-02-28T09:57:23.233Z,1541.25
2019-02-28T09:58:26.231Z,1648.12
2019-02-28T09:59:24.209Z,1861.88
2019-02-28T10:00:23.199Z,1749.38
2019-02-28T10:01:24.499Z,1980.00
2019-02-28T10:02:23.168Z,1766.25
2019-02-28T10:03:23.179Z,1552.50
2019-02-28T10:04:23.182Z,1828.12
2019-02-28T10:05:23.165Z,1524.38
2019-02-28T10:06:23.135Z,1507.50
2019-02-28T10:07:23.337Z,1546.88
2019-02-28T10:08:23.107Z,1906.88
2019-02-28T10:09:23.117Z,2019.38
2019-02-28T10:10:23.091Z,2525.62
2019-02-28T10:11:23.087Z,2334.38
2019-02-28T10:12:23.070Z,2311.88
2019-02-28T10:13:23.058Z,2193.75
2019-02-28T10:14:25.722Z,2486.25
2019-02-28T10:15:24.038Z,2610.00
2019-02-28T10:16:23.024Z,1890.00
2019-02-28T10:17:25.872Z,1833.75
2019-02-28T10:18:24.006Z,2199.38
2019-02-28T10:19:23.783Z,2205.00
2019-02-28T10:20:26.463Z,1811.25
2019-02-28T10:21:22.967Z,2289.38
2019-02-28T10:22:22.956Z,2295.00
2019-02-28T10:23:22.972Z,1828.12
2019-02-28T10:24:24.681Z,1861.88
2019-02-28T10:25:22.930Z,2143.12
2019-02-28T10:26:22.918Z,2306.25
2019-02-28T10:27:26.440Z,2030.62
2019-02-28T10:28:22.903Z,1794.38
2019-02-28T10:29:22.914Z,2053.12
2019-02-28T10:30:31.210Z,2289.38
2019-02-28T10:31:35.221Z,1918.12
2019-02-28T10:32:23.856Z,1766.25
2019-02-28T10:33:22.849Z,1777.50
2019-02-28T10:34:23.508Z,2120.62
2019-02-28T10:35:22.825Z,1957.50
2019-02-28T10:36:22.832Z,2210.62
2019-02-28T10:37:23.603Z,2013.75
2019-02-28T10:38:22.795Z,2092.50
2019-02-28T10:39:23.316Z,1845.00
2019-02-28T10:40:22.771Z,2120.62
2019-02-28T10:41:24.198Z,2351.25
2019-02-28T10:42:22.740Z,2278.12
2019-02-28T10:43:22.759Z,2182.50
2019-02-28T10:44:22.725Z,2244.38
2019-02-28T10:45:22.730Z,2413.12
2019-02-28T10:46:22.726Z,2413.12
2019-02-28T10:47:28.137Z,2430.00
2019-02-28T10:48:23.682Z,2475.00
2019-02-28T10:49:24.120Z,2486.25
2019-02-28T10:50:22.663Z,1980.00
2019-02-28T10:51:22.673Z,2598.75
2019-02-28T10:52:23.430Z,2041.88
2019-02-28T10:53:22.627Z,1839.38
2019-02-28T10:54:22.612Z,1968.75
2019-02-28T10:55:23.359Z,2008.12
2019-02-28T10:56:22.610Z,2311.88
2019-02-28T10:57:22.592Z,2520.00
2019-02-28T10:58:22.603Z,2576.25
2019-02-28T10:59:24.386Z,2385.00
2019-02-28T11:00:22.551Z,2424.38
2019-02-28T11:01:22.562Z,2362.50
2019-02-28T11:02:22.557Z,2216.25
2019-02-28T11:03:22.573Z,2002.50
2019-02-28T11:04:22.525Z,2036.25
2019-02-28T11:05:22.511Z,2390.62
2019-02-28T11:06:25.253Z,2452.50
2019-02-28T11:07:23.500Z,2328.75
2019-02-28T11:08:22.474Z,2401.88
2019-02-28T11:09:25.342Z,2103.75
2019-02-28T11:10:22.464Z,1940.62
2019-02-28T11:11:22.441Z,1833.75
2019-02-28T11:12:23.858Z,1597.50
2019-02-28T11:13:22.419Z,1569.38
2019-02-28T11:14:22.468Z,1558.12
2019-02-28T11:15:22.417Z,1569.38
2019-02-28T11:16:23.672Z,1524.38
2019-02-28T11:17:22.383Z,1738.12
2019-02-28T11:18:22.391Z,1726.88
2019-02-28T11:19:22.356Z,1704.38
2019-02-28T11:20:22.668Z,1698.75
2019-02-28T11:21:22.333Z,1721.25
2019-02-28T11:22:22.326Z,1794.38
2019-02-28T11:23:22.335Z,1895.62
2019-02-28T11:24:23.659Z,1850.62
2019-02-28T11:25:22.286Z,1743.75
2019-02-28T11:26:22.280Z,1614.38
2019-02-28T11:27:23.004Z,1839.38
2019-02-28T11:28:22.294Z,1845.00
2019-02-28T11:29:22.251Z,2109.38
2019-02-28T11:30:22.246Z,2216.25
2019-02-28T11:31:22.229Z,2250.00
2019-02-28T11:32:22.216Z,2182.50
2019-02-28T11:33:22.910Z,2289.38
2019-02-28T11:34:22.213Z,2266.88
2019-02-28T11:35:23.264Z,2160.00
2019-02-28T11:36:22.192Z,2244.38
2019-02-28T11:37:22.165Z,2188.12
2019-02-28T11:38:22.157Z,2221.88
2019-02-28T11:39:22.161Z,2221.88
2019-02-28T11:40:22.137Z,2295.00
2019-02-28T11:41:22.125Z,2317.50
2019-02-28T11:42:24.557Z,2266.88
2019-02-28T11:43:23.107Z,2283.75
2019-02-28T11:44:22.118Z,2182.50
2019-02-28T11:45:25.341Z,2351.25
2019-02-28T11:46:22.063Z,2311.88
2019-02-28T11:47:23.347Z,2148.75
2019-02-28T11:48:22.050Z,2446.88
2019-02-28T11:49:22.039Z,2520.00
2019-02-28T11:50:22.047Z,2148.75
2019-02-28T11:51:22.025Z,1755.00
2019-02-28T11:52:24.509Z,1485.00
2019-02-28T11:53:22.993Z,1923.75
2019-02-28T11:54:21.987Z,1906.88
2019-02-28T11:55:22.012Z,1473.75
2019-02-28T11:56:21.971Z,1186.88
2019-02-28T11:57:21.949Z,1417.50
2019-02-28T11:58:21.939Z,1490.62
2019-02-28T11:59:24.233Z,1991.25
2019-02-28T12:00:21.921Z,1743.75
2019-02-28T12:01:21.928Z,1890.00
2019-02-28T12:02:21.909Z,1501.88
2019-02-28T12:03:21.903Z,1546.88
2019-02-28T12:04:21.876Z,1906.88
2019-02-28T12:05:21.871Z,2019.38
2019-02-28T12:06:22.357Z,1636.88
2019-02-28T12:07:21.843Z,1468.12
2019-02-28T12:08:22.468Z,1372.50
2019-02-28T12:09:21.848Z,1625.62
2019-02-28T12:10:21.812Z,1237.50
2019-02-28T12:11:21.839Z,1535.62
2019-02-28T12:12:21.799Z,1445.62
2019-02-28T12:13:21.784Z,1597.50
2019-02-28T12:14:21.785Z,1563.75
2019-02-28T12:15:22.661Z,1659.38
2019-02-28T12:16:21.757Z,1991.25
2019-02-28T12:17:21.758Z,1777.50
2019-02-28T12:18:21.732Z,1918.12
2019-02-28T12:19:21.717Z,1816.88
2019-02-28T12:20:25.819Z,1912.50
2019-02-28T12:21:21.701Z,2160.00
2019-02-28T12:22:21.753Z,2458.12
2019-02-28T12:23:23.437Z,2250.00
2019-02-28T12:24:21.663Z,2227.50
2019-02-28T12:25:21.651Z,2075.62
2019-02-28T12:26:21.654Z,2199.38
2019-02-28T12:27:24.425Z,2047.50
2019-02-28T12:28:22.619Z,2323.12
2019-02-28T12:29:21.608Z,2238.75
2019-02-28T12:30:22.042Z,2368.12
2019-02-28T12:31:21.591Z,2210.62
2019-02-28T12:32:21.606Z,2075.62
2019-02-28T12:33:23.244Z,2126.25
2019-02-28T12:34:21.562Z,2508.75
2019-02-28T12:35:21.564Z,2570.62
2019-02-28T12:36:21.534Z,2705.62
2019-02-28T12:37:22.250Z,2570.62
2019-02-28T12:38:21.535Z,2463.75
2019-02-28T12:39:23.581Z,2458.12
2019-02-28T12:40:21.498Z,2379.38
2019-02-28T12:41:24.802Z,2373.75
2019-02-28T12:42:21.468Z,2058.75